Time;durP1;ratioP1;P1;durP2;ratioP2;P2;SDS_P1;SDS_P2;PMS_P1;PMS_P2;Temp;Humidity;BMP_temperature;BMP_pressure;BME280_temperature;BME280_humidity;BME280_pressure;Samples;Min_cycle;Max_cycle;Signal;HPM_P1;HPM_P2
2021/06/01 00:00:09;;;;;;;3.47;1.95;;;;;;;;;;5037126;28;20250;-68
2021/06/01 00:02:35;;;;;;;6.30;2.10;;;;;;;;;;5024926;28;20206;-68
2021/06/01 00:05:01;;;;;;;2.42;1.73;;;;;;;;;;5034803;28;20645;-68
2021/06/01 00:07:26;;;;;;;3.72;1.92;;;;;;;;;;5023109;28;20222;-68
2021/06/01 00:09:51;;;;;;;4.50;2.22;;;;;;;;;;5033260;28;20790;-68
2021/06/01 00:12:17;;;;;;;2.10;1.80;;;;;;;;;;5026807;28;20556;-68
2021/06/01 00:14:42;;;;;;;4.65;2.00;;;;;;;;;;5034557;28;20194;-68
2021/06/01 00:17:08;;;;;;;3.63;2.10;;;;;;;;;;5026245;28;20198;-68
2021/06/01 00:19:33;;;;;;;3.67;2.20;;;;;;;;;;5030749;28;20236;-68
2021/06/01 00:21:59;;;;;;;6.78;2.97;;;;;;;;;;5025713;28;20190;-68
2021/06/01 00:24:24;;;;;;;2.60;2.05;;;;;;;;;;5026837;28;20190;-68
2021/06/01 00:26:49;;;;;;;3.45;2.20;;;;;;;;;;5030910;28;20694;-69
2021/06/01 00:29:15;;;;;;;2.83;2.28;;;;;;;;;;5021135;28;20799;-68
2021/06/01 00:31:42;;;;;;;3.97;2.10;;;;;;;;;;5030266;28;20205;-70
2021/06/01 00:34:07;;;;;;;4.07;2.20;;;;;;;;;;5023579;28;20198;-68
2021/06/01 00:36:33;;;;;;;3.75;2.42;;;;;;;;;;5035276;28;20197;-68
2021/06/01 00:38:59;;;;;;;3.47;2.30;;;;;;;;;;5021889;28;20189;-68
2021/06/01 00:41:24;;;;;;;6.03;2.10;;;;;;;;;;5029781;28;20196;-68
2021/06/01 00:43:49;;;;;;;3.70;2.03;;;;;;;;;;5023702;28;20641;-68
2021/06/01 00:46:15;;;;;;;3.95;1.95;;;;;;;;;;5030731;28;20198;-68
2021/06/01 00:48:41;;;;;;;3.33;2.10;;;;;;;;;;5019135;28;20225;-68
2021/06/01 00:51:06;;;;;;;3.15;2.35;;;;;;;;;;5029435;28;20197;-68
2021/06/01 00:53:32;;;;;;;3.25;2.28;;;;;;;;;;5032952;28;20197;-68
2021/06/01 00:55:57;;;;;;;5.03;2.40;;;;;;;;;;5017875;28;20182;-68
2021/06/01 00:58:25;;;;;;;4.30;2.40;;;;;;;;;;5026504;28;20294;-69
2021/06/01 01:01:16;;;;;;;4.55;2.40;;;;;;;;;;5021652;28;21489;-69
2021/06/01 01:03:42;;;;;;;4.90;2.10;;;;;;;;;;5030523;28;20196;-69
2021/06/01 01:06:44;;;;;;;4.07;2.50;;;;;;;;;;5021429;28;20201;-70
2021/06/01 01:09:13;;;;;;;3.00;2.20;;;;;;;;;;5028018;28;20267;-69
2021/06/01 01:11:47;;;;;;;3.45;2.45;;;;;;;;;;5020417;28;20198;-70
2021/06/01 01:14:32;;;;;;;3.40;3.00;;;;;;;;;;5030312;28;20188;-69
2021/06/01 01:17:05;;;;;;;4.53;2.60;;;;;;;;;;5021327;28;20200;-69
2021/06/01 01:19:49;;;;;;;4.05;2.85;;;;;;;;;;5026617;28;20182;-69
2021/06/01 01:22:16;;;;;;;4.38;2.83;;;;;;;;;;5018764;28;20661;-69
2021/06/01 01:24:48;;;;;;;3.70;2.88;;;;;;;;;;5028595;28;20194;-69
2021/06/01 01:27:20;;;;;;;3.88;2.88;;;;;;;;;;5017256;28;20234;-68
2021/06/01 01:29:48;;;;;;;5.22;3.38;;;;;;;;;;5026135;28;20564;-69
2021/06/01 01:32:33;;;;;;;3.60;2.72;;;;;;;;;;5023498;28;20201;-69
2021/06/01 01:34:59;;;;;;;4.72;2.78;;;;;;;;;;5028376;28;20217;-70
2021/06/01 01:37:28;;;;;;;3.53;2.90;;;;;;;;;;5021625;28;20194;-70
2021/06/01 01:39:59;;;;;;;5.47;2.92;;;;;;;;;;5027603;28;20186;-70
2021/06/01 01:42:27;;;;;;;4.95;2.92;;;;;;;;;;5020459;28;20208;-70
2021/06/01 01:44:54;;;;;;;5.65;3.10;;;;;;;;;;5030307;28;20193;-69
2021/06/01 01:49:57;;;;;;;4.95;3.13;;;;;;;;;;5026031;28;20214;-70
2021/06/01 01:52:23;;;;;;;5.30;3.10;;;;;;;;;;5019809;28;20236;-70
2021/06/01 01:54:48;;;;;;;6.93;3.40;;;;;;;;;;5027357;28;20787;-70
2021/06/01 01:57:14;;;;;;;5.65;3.10;;;;;;;;;;5019420;28;20203;-69
2021/06/01 01:59:40;;;;;;;5.97;3.72;;;;;;;;;;5026605;28;20226;-69
2021/06/01 02:02:13;;;;;;;4.20;3.00;;;;;;;;;;5024808;28;20293;-69
2021/06/01 02:04:41;;;;;;;5.38;3.30;;;;;;;;;;5015032;28;20201;-69
2021/06/01 02:07:07;;;;;;;6.65;3.03;;;;;;;;;;5027504;28;20185;-69
2021/06/01 02:09:32;;;;;;;4.15;2.97;;;;;;;;;;5016924;28;20750;-70
2021/06/01 02:11:58;;;;;;;4.65;3.03;;;;;;;;;;5026901;28;20181;-69
2021/06/01 02:14:23;;;;;;;7.10;3.58;;;;;;;;;;5020973;28;20185;-69
2021/06/01 02:16:50;;;;;;;3.72;2.97;;;;;;;;;;5031827;28;20204;-69
2021/06/01 02:19:17;;;;;;;4.60;3.05;;;;;;;;;;5019746;28;20189;-68
2021/06/01 02:24:20;;;;;;;5.35;3.50;;;;;;;;;;5019613;28;20225;-68
2021/06/01 02:26:58;;;;;;;4.82;3.80;;;;;;;;;;5030873;28;20240;-68
2021/06/01 02:29:30;;;;;;;6.03;3.38;;;;;;;;;;5021299;28;20342;-69
2021/06/01 02:31:57;;;;;;;5.00;3.83;;;;;;;;;;5029511;28;20190;-69
2021/06/01 02:34:25;;;;;;;5.13;3.00;;;;;;;;;;5022453;28;20208;-70
2021/06/01 02:36:52;;;;;;;5.30;3.28;;;;;;;;;;5030083;28;20193;-72
2021/06/01 02:39:20;;;;;;;6.20;3.67;;;;;;;;;;5030130;28;23268;-69
2021/06/01 02:41:47;;;;;;;6.13;3.70;;;;;;;;;;5024792;28;20234;-69
2021/06/01 02:44:13;;;;;;;7.35;3.70;;;;;;;;;;5029404;28;20213;-69
2021/06/01 02:46:39;;;;;;;7.80;3.95;;;;;;;;;;5026359;28;20189;-69
2021/06/01 02:49:05;;;;;;;4.30;3.55;;;;;;;;;;5029266;28;20296;-69
2021/06/01 02:51:33;;;;;;;5.05;3.95;;;;;;;;;;5027092;28;20274;-69
2021/06/01 02:53:58;;;;;;;4.35;3.80;;;;;;;;;;5029007;28;20285;-68
2021/06/01 02:56:24;;;;;;;4.38;3.45;;;;;;;;;;5023667;28;20320;-69
2021/06/01 02:58:51;;;;;;;4.20;3.50;;;;;;;;;;5028808;28;20239;-68
2021/06/01 03:01:21;;;;;;;6.70;3.75;;;;;;;;;;5023923;28;20322;-68
2021/06/01 03:03:52;;;;;;;4.95;3.65;;;;;;;;;;5029521;28;20197;-68
2021/06/01 03:06:18;;;;;;;7.32;4.00;;;;;;;;;;5023383;28;20232;-68
2021/06/01 03:08:44;;;;;;;4.93;3.90;;;;;;;;;;5028746;28;20225;-69
2021/06/01 03:11:11;;;;;;;8.25;3.90;;;;;;;;;;5020935;28;20277;-68
2021/06/01 03:13:37;;;;;;;7.30;3.67;;;;;;;;;;5031061;28;20618;-68
2021/06/01 03:16:03;;;;;;;5.95;4.07;;;;;;;;;;5030937;28;20181;-68
2021/06/01 03:18:29;;;;;;;4.85;3.80;;;;;;;;;;5023373;28;20190;-68
2021/06/01 03:20:55;;;;;;;5.28;4.30;;;;;;;;;;5028149;28;20538;-68
2021/06/01 03:23:20;;;;;;;5.35;3.67;;;;;;;;;;5020084;28;20229;-68
2021/06/01 03:25:46;;;;;;;4.78;3.38;;;;;;;;;;5030509;28;20178;-68
2021/06/01 03:28:11;;;;;;;6.15;3.72;;;;;;;;;;5022934;28;20304;-68
2021/06/01 03:30:37;;;;;;;6.22;3.97;;;;;;;;;;5028432;28;20242;-68
2021/06/01 03:33:04;;;;;;;5.18;4.03;;;;;;;;;;5024040;28;20201;-69
2021/06/01 03:35:29;;;;;;;6.25;4.22;;;;;;;;;;5032236;28;20199;-68
2021/06/01 03:37:56;;;;;;;9.13;4.22;;;;;;;;;;5023305;28;20189;-68
2021/06/01 03:40:23;;;;;;;5.57;4.13;;;;;;;;;;5032413;28;20513;-68
2021/06/01 03:42:48;;;;;;;8.70;4.38;;;;;;;;;;5023649;28;20221;-68
2021/06/01 03:45:14;;;;;;;5.97;4.00;;;;;;;;;;5027523;28;20649;-68
2021/06/01 03:47:40;;;;;;;6.40;4.32;;;;;;;;;;5028601;28;20524;-69
2021/06/01 03:50:06;;;;;;;5.78;4.45;;;;;;;;;;5020411;28;20240;-68
2021/06/01 03:52:32;;;;;;;6.55;4.18;;;;;;;;;;5028753;28;20292;-68
2021/06/01 03:54:57;;;;;;;7.47;4.35;;;;;;;;;;5024172;28;20732;-68
2021/06/01 03:57:22;;;;;;;6.30;4.07;;;;;;;;;;5030707;28;20819;-70
2021/06/01 03:59:49;;;;;;;6.13;3.97;;;;;;;;;;5024051;28;20232;-70
2021/06/01 04:02:14;;;;;;;6.68;4.00;;;;;;;;;;5029371;28;23273;-68
2021/06/01 04:04:39;;;;;;;6.93;3.88;;;;;;;;;;5021688;28;20186;-68
2021/06/01 04:07:05;;;;;;;6.55;4.30;;;;;;;;;;5029822;28;20265;-69
2021/06/01 04:09:31;;;;;;;5.40;3.95;;;;;;;;;;5022421;28;20213;-69
2021/06/01 04:11:57;;;;;;;6.18;3.95;;;;;;;;;;5030123;28;20185;-69
2021/06/01 04:14:22;;;;;;;6.97;4.05;;;;;;;;;;5030274;28;20567;-68
2021/06/01 04:16:51;;;;;;;5.32;3.78;;;;;;;;;;5023953;28;20700;-69
2021/06/01 04:19:17;;;;;;;6.00;3.40;;;;;;;;;;5024695;28;20277;-69
2021/06/01 04:21:43;;;;;;;6.18;3.75;;;;;;;;;;5021661;28;20673;-69
2021/06/01 04:24:09;;;;;;;6.60;4.13;;;;;;;;;;5025827;28;20186;-69
2021/06/01 04:26:34;;;;;;;6.38;4.05;;;;;;;;;;5022623;28;20189;-69
2021/06/01 04:29:00;;;;;;;7.55;3.92;;;;;;;;;;5031506;28;20205;-69
2021/06/01 04:31:25;;;;;;;6.65;3.67;;;;;;;;;;5022069;28;20196;-69
2021/06/01 04:33:51;;;;;;;4.68;3.58;;;;;;;;;;5030077;28;20274;-69
2021/06/01 04:36:16;;;;;;;6.70;4.15;;;;;;;;;;5020201;28;20194;-69
2021/06/01 04:38:42;;;;;;;6.82;3.30;;;;;;;;;;5028564;28;20192;-69
2021/06/01 04:41:07;;;;;;;4.75;3.47;;;;;;;;;;5020986;28;20275;-69
2021/06/01 04:43:32;;;;;;;6.60;3.65;;;;;;;;;;5027945;28;20196;-69
2021/06/01 04:45:58;;;;;;;5.32;3.90;;;;;;;;;;5027246;28;20228;-69
2021/06/01 04:48:23;;;;;;;7.03;3.60;;;;;;;;;;5015752;28;20217;-67
2021/06/01 04:50:49;;;;;;;5.10;3.75;;;;;;;;;;5027912;28;20316;-68
2021/06/01 04:53:15;;;;;;;7.25;3.83;;;;;;;;;;5018625;28;20198;-69
2021/06/01 04:55:41;;;;;;;6.95;3.50;;;;;;;;;;5026871;28;20195;-69
2021/06/01 04:58:06;;;;;;;6.45;3.17;;;;;;;;;;5014661;28;20217;-69
2021/06/01 05:00:32;;;;;;;3.95;3.40;;;;;;;;;;5026564;28;20190;-69
2021/06/01 05:02:57;;;;;;;6.05;3.20;;;;;;;;;;5016879;28;20193;-69
2021/06/01 05:05:23;;;;;;;5.10;3.60;;;;;;;;;;5027721;28;20535;-68
2021/06/01 05:07:48;;;;;;;5.90;3.75;;;;;;;;;;5020895;28;20194;-69
2021/06/01 05:10:13;;;;;;;4.72;3.38;;;;;;;;;;5024140;28;20703;-69
2021/06/01 05:12:39;;;;;;;9.50;3.67;;;;;;;;;;5015678;28;20677;-69
2021/06/01 05:15:06;;;;;;;4.47;3.65;;;;;;;;;;5025307;28;20220;-69
2021/06/01 05:17:32;;;;;;;6.28;4.07;;;;;;;;;;5027566;28;20221;-68
2021/06/01 05:19:58;;;;;;;7.22;3.47;;;;;;;;;;5018962;28;20285;-68
2021/06/01 05:22:23;;;;;;;5.97;3.20;;;;;;;;;;5028953;28;20185;-69
2021/06/01 05:24:49;;;;;;;4.93;3.60;;;;;;;;;;5020464;28;20194;-69
2021/06/01 05:27:14;;;;;;;7.40;3.45;;;;;;;;;;5032304;28;20189;-69
2021/06/01 05:29:41;;;;;;;5.55;3.58;;;;;;;;;;5022350;28;20222;-69
2021/06/01 05:32:32;;;;;;;3.85;3.47;;;;;;;;;;5028495;28;20193;-69
2021/06/01 05:35:03;;;;;;;4.90;3.30;;;;;;;;;;5017264;28;20205;-69
2021/06/01 05:37:33;;;;;;;5.18;3.38;;;;;;;;;;5025700;28;20692;-69
2021/06/01 05:39:58;;;;;;;5.25;3.70;;;;;;;;;;5018827;28;20190;-68
2021/06/01 05:42:23;;;;;;;4.53;3.50;;;;;;;;;;5028495;28;20197;-68
2021/06/01 05:44:49;;;;;;;4.72;3.60;;;;;;;;;;5019897;28;20186;-69
2021/06/01 05:47:15;;;;;;;6.35;3.90;;;;;;;;;;5028276;28;20197;-69
2021/06/01 05:49:40;;;;;;;6.45;3.63;;;;;;;;;;5021376;28;20715;-69
2021/06/01 05:52:06;;;;;;;5.75;3.15;;;;;;;;;;5025903;28;20649;-69
2021/06/01 05:54:32;;;;;;;6.40;3.92;;;;;;;;;;5029741;28;20185;-67
2021/06/01 05:56:57;;;;;;;5.85;3.65;;;;;;;;;;5020698;28;20275;-68
2021/06/01 05:59:22;;;;;;;5.10;3.75;;;;;;;;;;4330283;28;10000716;-69
2021/06/01 06:01:47;;;;;;;4.25;3.60;;;;;;;;;;5017983;28;20757;-69
2021/06/01 06:04:13;;;;;;;5.45;3.67;;;;;;;;;;5026508;28;20197;-69
2021/06/01 06:06:38;;;;;;;5.22;3.17;;;;;;;;;;5015915;28;20267;-69
2021/06/01 06:09:04;;;;;;;6.20;3.80;;;;;;;;;;5027676;28;20293;-68
2021/06/01 06:11:29;;;;;;;6.97;3.75;;;;;;;;;;5021921;28;20196;-69
2021/06/01 06:13:54;;;;;;;6.50;3.85;;;;;;;;;;5028868;28;20193;-69
2021/06/01 06:16:20;;;;;;;5.68;3.30;;;;;;;;;;5021894;28;20185;-68
2021/06/01 06:18:57;;;;;;;5.82;3.15;;;;;;;;;;5032020;28;20193;-69
2021/06/01 06:21:22;;;;;;;7.15;3.35;;;;;;;;;;5023685;28;20187;-68
2021/06/01 06:23:48;;;;;;;7.30;3.42;;;;;;;;;;5030967;28;20668;-69
2021/06/01 06:26:13;;;;;;;7.13;3.72;;;;;;;;;;5030829;28;20260;-69
2021/06/01 06:28:38;;;;;;;7.10;3.83;;;;;;;;;;5025915;28;20212;-68
2021/06/01 06:31:04;;;;;;;9.13;3.80;;;;;;;;;;5030900;28;20566;-68
2021/06/01 06:33:29;;;;;;;11.68;4.03;;;;;;;;;;5022915;28;20280;-68
2021/06/01 06:35:55;;;;;;;5.32;3.58;;;;;;;;;;5033359;28;20368;-69
2021/06/01 06:38:21;;;;;;;7.32;3.78;;;;;;;;;;5022611;28;20660;-70
2021/06/01 06:41:12;;;;;;;5.88;4.05;;;;;;;;;;5032120;28;20185;-69
2021/06/01 06:43:36;;;;;;;6.60;4.25;;;;;;;;;;5023739;28;20664;-68
2021/06/01 06:46:02;;;;;;;7.40;4.40;;;;;;;;;;5029884;28;20546;-68
2021/06/01 06:48:28;;;;;;;6.13;4.40;;;;;;;;;;5022685;28;20221;-68
2021/06/01 06:50:53;;;;;;;5.35;4.20;;;;;;;;;;5029714;28;20198;-68
2021/06/01 06:53:18;;;;;;;6.28;4.55;;;;;;;;;;5018927;28;20675;-69
2021/06/01 06:55:44;;;;;;;5.47;4.32;;;;;;;;;;5027937;28;20689;-68
2021/06/01 06:58:09;;;;;;;6.30;4.40;;;;;;;;;;5022385;28;20182;-68
2021/06/01 07:00:35;;;;;;;7.57;4.22;;;;;;;;;;5034959;28;20625;-68
2021/06/01 07:03:01;;;;;;;7.10;4.28;;;;;;;;;;5030670;28;20181;-68
2021/06/01 07:05:26;;;;;;;8.48;4.85;;;;;;;;;;5023170;28;20190;-68
2021/06/01 07:07:53;;;;;;;6.55;4.47;;;;;;;;;;5026340;28;20197;-68
2021/06/01 07:10:20;;;;;;;7.15;4.85;;;;;;;;;;5020827;28;20224;-68
2021/06/01 07:12:46;;;;;;;6.55;4.40;;;;;;;;;;5030248;28;20719;-69
2021/06/01 07:15:14;;;;;;;6.55;4.55;;;;;;;;;;5024032;28;20194;-68
2021/06/01 07:17:44;;;;;;;8.35;4.63;;;;;;;;;;5028476;28;20637;-69
2021/06/01 07:20:11;;;;;;;12.23;4.82;;;;;;;;;;5021879;28;20688;-69
2021/06/01 07:22:37;;;;;;;7.25;4.25;;;;;;;;;;5027612;28;20291;-68
2021/06/01 07:25:03;;;;;;;6.05;4.13;;;;;;;;;;5023854;28;20952;-68
2021/06/01 07:27:28;;;;;;;5.75;4.18;;;;;;;;;;5028843;28;20328;-68
2021/06/01 07:29:54;;;;;;;9.00;4.30;;;;;;;;;;5021885;28;20243;-68
2021/06/01 07:32:21;;;;;;;6.40;4.32;;;;;;;;;;5027504;28;20220;-68
2021/06/01 07:34:46;;;;;;;6.00;4.20;;;;;;;;;;5029761;28;20247;-68
2021/06/01 07:37:12;;;;;;;8.13;4.18;;;;;;;;;;5021082;28;20201;-68
2021/06/01 07:39:37;;;;;;;6.70;4.82;;;;;;;;;;5031274;28;20178;-68
2021/06/01 07:42:04;;;;;;;4.22;3.75;;;;;;;;;;5022056;28;20289;-69
2021/06/01 07:44:30;;;;;;;8.13;4.00;;;;;;;;;;5032360;28;20181;-68
2021/06/01 07:46:55;;;;;;;4.78;3.88;;;;;;;;;;5020707;28;20189;-68
2021/06/01 07:49:21;;;;;;;6.63;4.30;;;;;;;;;;5028067;28;20208;-69
2021/06/01 07:51:46;;;;;;;6.57;3.75;;;;;;;;;;5021690;28;20262;-68
2021/06/01 07:54:12;;;;;;;6.72;4.03;;;;;;;;;;5031535;28;20182;-68
2021/06/01 07:56:37;;;;;;;8.02;4.28;;;;;;;;;;5019149;28;20190;-68
2021/06/01 07:59:03;;;;;;;5.60;4.30;;;;;;;;;;5026031;28;20189;-68
2021/06/01 08:01:29;;;;;;;6.82;4.55;;;;;;;;;;5027596;28;20601;-69
2021/06/01 08:03:55;;;;;;;7.70;4.53;;;;;;;;;;5027232;28;20189;-68
2021/06/01 08:06:20;;;;;;;7.55;3.92;;;;;;;;;;5027203;28;20661;-69
2021/06/01 08:08:46;;;;;;;5.68;3.95;;;;;;;;;;5020733;28;20204;-68
2021/06/01 08:11:11;;;;;;;6.00;4.50;;;;;;;;;;5030710;28;20193;-69
2021/06/01 08:13:36;;;;;;;4.53;4.07;;;;;;;;;;5020567;28;20703;-68
2021/06/01 08:16:03;;;;;;;6.18;4.15;;;;;;;;;;5031099;28;20659;-68
2021/06/01 08:18:33;;;;;;;4.07;3.67;;;;;;;;;;5020894;28;20669;-68
2021/06/01 08:23:24;;;;;;;6.30;4.32;;;;;;;;;;5018867;28;20324;-68
2021/06/01 08:25:50;;;;;;;7.28;4.80;;;;;;;;;;5029884;28;20201;-68
2021/06/01 08:28:15;;;;;;;10.32;4.70;;;;;;;;;;5019377;28;20266;-68
2021/06/01 08:30:41;;;;;;;7.45;4.70;;;;;;;;;;5029404;28;20202;-68
2021/06/01 08:33:06;;;;;;;4.95;3.88;;;;;;;;;;5023021;28;20230;-68
2021/06/01 08:35:32;;;;;;;5.22;3.72;;;;;;;;;;5023467;28;20629;-69
2021/06/01 08:37:57;;;;;;;7.85;3.75;;;;;;;;;;5027621;28;20190;-68
2021/06/01 08:40:23;;;;;;;4.63;3.60;;;;;;;;;;5017834;28;21631;-68
2021/06/01 08:42:54;;;;;;;5.63;3.55;;;;;;;;;;5050938;28;20591;-68
2021/06/01 08:45:20;;;;;;;4.88;3.55;;;;;;;;;;5040826;28;20251;-68
2021/06/01 08:47:47;;;;;;;4.63;3.30;;;;;;;;;;5050250;28;20303;-68
2021/06/01 08:50:13;;;;;;;4.97;3.13;;;;;;;;;;5038779;28;20197;-68
2021/06/01 08:52:39;;;;;;;5.82;3.10;;;;;;;;;;5048996;28;20246;-68
2021/06/01 08:55:07;;;;;;;3.72;2.92;;;;;;;;;;5041083;28;20254;-68
2021/06/01 08:57:36;;;;;;;6.28;3.25;;;;;;;;;;5050633;28;20185;-68
2021/06/01 09:00:04;;;;;;;4.15;2.58;;;;;;;;;;5040917;28;20578;-68
2021/06/01 09:02:30;;;;;;;3.40;2.40;;;;;;;;;;5033993;28;20213;-67
2021/06/01 09:04:59;;;;;;;4.63;2.45;;;;;;;;;;5023294;28;20177;-68
2021/06/01 09:10:24;;;;;;;6.75;3.42;;;;;;;;;;5029472;28;20194;-67
2021/06/01 09:21:45;;;;;;;4.93;2.55;;;;;;;;;;5021562;28;20311;-67
2021/06/01 09:24:10;;;;;;;5.65;2.92;;;;;;;;;;5030563;28;20177;-67
2021/06/01 09:26:45;;;;;;;3.33;2.80;;;;;;;;;;5022090;28;20196;-67
2021/06/01 09:29:11;;;;;;;3.15;2.80;;;;;;;;;;5032257;28;20252;-68
2021/06/01 09:31:37;;;;;;;4.95;2.50;;;;;;;;;;5021816;28;23484;-68
2021/06/01 09:34:02;;;;;;;3.70;2.60;;;;;;;;;;5029890;28;20186;-66
2021/06/01 09:36:28;;;;;;;2.90;2.53;;;;;;;;;;5029018;28;20657;-67
2021/06/01 09:38:53;;;;;;;5.10;2.05;;;;;;;;;;5019929;28;20198;-67
2021/06/01 09:41:25;;;;;;;4.00;2.38;;;;;;;;;;5025653;28;20233;-67
2021/06/01 09:43:56;;;;;;;4.03;2.22;;;;;;;;;;5020104;28;20295;-68
2021/06/01 09:46:26;;;;;;;3.60;2.60;;;;;;;;;;5028900;28;20336;-68
2021/06/01 09:48:54;;;;;;;5.13;3.28;;;;;;;;;;5021302;28;20576;-67
2021/06/01 09:51:33;;;;;;;3.65;2.55;;;;;;;;;;5026353;28;20182;-68
2021/06/01 09:54:46;;;;;;;6.97;2.65;;;;;;;;;;5010992;28;20204;-67
2021/06/01 09:57:20;;;;;;;3.83;2.42;;;;;;;;;;5016890;28;20190;-67
2021/06/01 10:00:09;;;;;;;5.18;2.67;;;;;;;;;;5004376;28;20658;-68
2021/06/01 10:02:34;;;;;;;3.38;2.28;;;;;;;;;;5013011;28;20209;-68
2021/06/01 10:05:27;;;;;;;4.72;2.47;;;;;;;;;;5006870;28;20197;-67
2021/06/01 10:07:55;;;;;;;4.13;2.55;;;;;;;;;;5013308;28;20190;-67
2021/06/01 10:10:29;;;;;;;3.58;2.45;;;;;;;;;;5005377;28;20277;-67
2021/06/01 10:13:06;;;;;;;5.78;2.90;;;;;;;;;;5014517;28;20277;-67
2021/06/01 10:15:33;;;;;;;3.40;2.40;;;;;;;;;;5006681;28;20634;-68
2021/06/01 10:17:59;;;;;;;5.72;2.58;;;;;;;;;;5012454;28;20253;-68
2021/06/01 10:20:27;;;;;;;3.95;2.72;;;;;;;;;;5006978;28;20193;-68
2021/06/01 10:22:53;;;;;;;2.92;2.53;;;;;;;;;;5014422;28;20236;-67
2021/06/01 10:25:19;;;;;;;4.43;2.88;;;;;;;;;;5004674;28;20190;-67
2021/06/01 10:27:46;;;;;;;4.88;2.08;;;;;;;;;;5017698;28;20190;-68
2021/06/01 10:30:13;;;;;;;2.28;2.03;;;;;;;;;;5003904;28;21881;-68
2021/06/01 10:32:50;;;;;;;5.47;2.35;;;;;;;;;;5013971;28;20218;-68
2021/06/01 10:35:19;;;;;;;3.47;1.83;;;;;;;;;;5004866;28;20213;-67
2021/06/01 10:49:52;;;;;;;3.75;1.90;;;;;;;;;;5013907;28;20197;-67
2021/06/01 10:51:59;;;;;;;3.42;2.22;;;;;;;;;;5010158;28;20212;-67
2021/06/01 10:54:41;;;;;;;3.50;1.95;;;;;;;;;;5015417;28;20238;-67
2021/06/01 10:57:07;;;;;;;6.65;2.10;;;;;;;;;;5008769;28;20193;-68
2021/06/01 11:02:20;;;;;;;3.30;1.85;;;;;;;;;;5006424;28;20221;-68
2021/06/01 11:05:10;;;;;;;4.07;1.98;;;;;;;;;;5013713;28;20194;-67
2021/06/01 11:07:51;;;;;;;2.33;1.80;;;;;;;;;;5008626;28;20193;-68
2021/06/01 11:10:45;;;;;;;2.20;1.67;;;;;;;;;;5013024;28;20205;-68
2021/06/01 11:13:22;;;;;;;2.03;1.50;;;;;;;;;;5005907;28;20379;-67
2021/06/01 11:16:00;;;;;;;1.45;1.35;;;;;;;;;;5013007;28;20562;-67
2021/06/01 11:18:34;;;;;;;4.95;2.00;;;;;;;;;;5006555;28;20273;-68
2021/06/01 11:21:05;;;;;;;1.40;1.10;;;;;;;;;;5014020;28;20213;-68
2021/06/01 11:23:44;;;;;;;1.35;1.25;;;;;;;;;;5006849;28;20603;-67
2021/06/01 11:34:37;;;;;;;2.05;1.55;;;;;;;;;;5009942;28;20280;-67
2021/06/01 11:37:02;;;;;;;3.58;1.70;;;;;;;;;;5014439;28;20202;-68
2021/06/01 11:39:48;;;;;;;3.00;1.85;;;;;;;;;;5005469;28;20190;-67
2021/06/01 11:45:02;;;;;;;1.50;1.38;;;;;;;;;;5007298;28;20212;-67
2021/06/01 11:47:31;;;;;;;1.60;1.45;;;;;;;;;;5011967;28;20214;-66
2021/06/01 11:52:57;;;;;;;3.20;1.40;;;;;;;;;;5014641;28;20602;-67
2021/06/01 11:55:23;;;;;;;2.05;1.50;;;;;;;;;;5004293;28;20254;-67
2021/06/01 12:03:18;;;;;;;3.00;1.80;;;;;;;;;;5010798;28;20193;-67
2021/06/01 12:19:03;;;;;;;1.33;1.23;;;;;;;;;;5013093;28;20194;-68
2021/06/01 12:21:50;;;;;;;4.60;1.73;;;;;;;;;;5004219;28;20681;-67
2021/06/01 12:24:25;;;;;;;2.63;1.40;;;;;;;;;;5016502;28;20185;-67
2021/06/01 12:32:14;;;;;;;1.52;1.40;;;;;;;;;;5003232;28;20716;-67
2021/06/01 13:31:40;;;;;;;1.38;1.10;;;;;;;;;;5014059;28;20695;-67
2021/06/01 13:37:04;;;;;;;4.45;2.03;;;;;;;;;;5015758;28;20201;-68
2021/06/01 13:47:15;;;;;;;3.03;1.35;;;;;;;;;;5012851;28;20209;-67
2021/06/01 13:49:46;;;;;;;2.45;1.63;;;;;;;;;;5015410;28;20190;-67
2021/06/01 13:52:33;;;;;;;3.05;1.50;;;;;;;;;;5004950;28;20656;-68
2021/06/01 14:11:29;;;;;;;2.67;1.80;;;;;;;;;;5004105;28;20270;-67
2021/06/01 14:19:56;;;;;;;4.82;1.65;;;;;;;;;;5010109;28;20272;-68
2021/06/01 14:28:49;;;;;;;2.78;1.50;;;;;;;;;;4989402;28;20744;-66
2021/06/01 14:31:19;;;;;;;3.60;1.80;;;;;;;;;;5005235;28;20190;-66
2021/06/01 14:36:39;;;;;;;1.98;1.65;;;;;;;;;;4318494;28;10000822;-67
2021/06/01 15:04:53;;;;;;;3.70;1.60;;;;;;;;;;5006198;28;20266;-66
2021/06/01 15:56:02;;;;;;;3.12;2.28;;;;;;;;;;5004535;28;10000940;-67
2021/06/01 16:11:20;;;;;;;3.95;2.10;;;;;;;;;;4999716;28;20680;-67
2021/06/01 16:13:04;;;;;;;3.15;1.85;;;;;;;;;;5004773;28;20327;-68
2021/06/01 16:23:36;;;;;;;6.03;1.90;;;;;;;;;;5009967;28;20228;-67
2021/06/01 16:29:56;;;;;;;3.85;1.92;;;;;;;;;;5014897;28;21276;-68
2021/06/01 16:32:01;;;;;;;3.78;2.00;;;;;;;;;;5007071;28;20213;-69
2021/06/01 17:04:41;;;;;;;4.60;2.17;;;;;;;;;;5020723;28;20256;-68
2021/06/01 17:07:16;;;;;;;4.70;2.90;;;;;;;;;;5015895;28;20279;-67
2021/06/01 17:12:45;;;;;;;2.63;2.42;;;;;;;;;;5023167;28;20224;-68
2021/06/01 17:15:13;;;;;;;2.47;2.28;;;;;;;;;;5022595;28;20509;-68
2021/06/01 17:17:45;;;;;;;2.88;2.60;;;;;;;;;;5018362;28;20604;-67
2021/06/01 17:23:18;;;;;;;3.45;2.42;;;;;;;;;;5019842;28;20628;-67
2021/06/01 17:36:30;;;;;;;4.82;2.67;;;;;;;;;;5032828;28;20767;-68
2021/06/01 17:38:57;;;;;;;3.47;2.30;;;;;;;;;;5018068;28;20327;-68
2021/06/01 17:41:24;;;;;;;2.33;2.13;;;;;;;;;;5038541;28;20291;-68
2021/06/01 17:43:55;;;;;;;3.95;2.28;;;;;;;;;;5014612;28;20830;-69
2021/06/01 17:46:22;;;;;;;3.70;2.58;;;;;;;;;;5021987;28;20210;-69
2021/06/01 17:48:56;;;;;;;5.28;2.40;;;;;;;;;;5015617;28;20754;-69
2021/06/01 17:51:26;;;;;;;4.32;2.53;;;;;;;;;;5035113;28;20178;-69
2021/06/01 17:53:54;;;;;;;3.05;2.45;;;;;;;;;;5014218;28;20194;-68
2021/06/01 17:56:23;;;;;;;3.65;2.42;;;;;;;;;;5022925;28;20193;-68
2021/06/01 17:58:49;;;;;;;2.97;2.60;;;;;;;;;;5013537;28;20807;-68
2021/06/01 18:01:16;;;;;;;4.32;2.50;;;;;;;;;;5020946;28;20217;-68
2021/06/01 18:03:58;;;;;;;4.28;3.10;;;;;;;;;;5016097;28;20338;-68
2021/06/01 18:06:36;;;;;;;4.40;2.60;;;;;;;;;;5025895;28;20185;-69
2021/06/01 18:53:02;;;;;;;5.00;2.78;;;;;;;;;;5006856;28;20200;-70
2021/06/01 19:28:22;;;;;;;3.30;2.95;;;;;;;;;;4999272;28;20203;-70
2021/06/01 19:50:20;;;;;;;6.43;3.60;;;;;;;;;;5000592;28;20240;-70
2021/06/01 19:52:49;;;;;;;6.15;3.13;;;;;;;;;;5009812;28;20597;-70
2021/06/01 19:55:16;;;;;;;6.65;3.45;;;;;;;;;;5000243;28;20193;-69
2021/06/01 19:57:42;;;;;;;8.50;3.83;;;;;;;;;;5008770;28;20198;-69
2021/06/01 20:00:10;;;;;;;7.13;3.10;;;;;;;;;;5004283;28;20216;-69
2021/06/01 20:02:36;;;;;;;7.88;3.55;;;;;;;;;;5008818;28;20214;-70
2021/06/01 20:05:14;;;;;;;6.07;3.10;;;;;;;;;;5002596;28;20207;-70
2021/06/01 20:07:39;;;;;;;4.15;3.33;;;;;;;;;;5003223;28;20193;-70
2021/06/01 20:10:08;;;;;;;6.25;3.38;;;;;;;;;;5000592;28;20607;-70
2021/06/01 20:12:34;;;;;;;6.31;3.39;;;;;;;;;;4659385;28;10000588;-69
2021/06/01 20:14:59;;;;;;;4.45;3.55;;;;;;;;;;4999461;28;20630;-69
2021/06/01 20:17:36;;;;;;;6.13;3.50;;;;;;;;;;5007047;28;20293;-69
2021/06/01 20:20:09;;;;;;;5.95;3.80;;;;;;;;;;4999320;28;20188;-69
2021/06/01 20:22:42;;;;;;;7.30;3.80;;;;;;;;;;5008692;28;20209;-69
2021/06/01 20:25:08;;;;;;;7.18;4.00;;;;;;;;;;5005189;28;20273;-69
2021/06/01 20:27:37;;;;;;;6.28;3.85;;;;;;;;;;5001061;28;20221;-69
2021/06/01 20:30:06;;;;;;;6.60;3.67;;;;;;;;;;5010134;28;20182;-69
2021/06/01 20:35:22;;;;;;;5.88;3.65;;;;;;;;;;5008937;28;20689;-69
2021/06/01 20:37:48;;;;;;;7.20;3.88;;;;;;;;;;4998868;28;20200;-70
2021/06/01 20:40:17;;;;;;;4.15;3.30;;;;;;;;;;5011578;28;20741;-70
2021/06/01 20:42:46;;;;;;;4.28;3.40;;;;;;;;;;5002721;28;20380;-69
2021/06/01 20:45:12;;;;;;;8.75;4.85;;;;;;;;;;5016470;28;20241;-69
2021/06/01 20:47:38;;;;;;;9.80;5.00;;;;;;;;;;5012398;28;20198;-69
2021/06/01 20:50:04;;;;;;;7.78;4.53;;;;;;;;;;5019947;28;20186;-69
2021/06/01 20:52:32;;;;;;;9.00;4.30;;;;;;;;;;5001787;28;20197;-69
2021/06/01 20:54:58;;;;;;;6.70;4.15;;;;;;;;;;5009277;28;20735;-70
2021/06/01 20:57:26;;;;;;;6.18;4.13;;;;;;;;;;5003133;28;20201;-69
2021/06/01 20:59:52;;;;;;;8.35;4.60;;;;;;;;;;5013586;28;21307;-69
2021/06/01 21:02:18;;;;;;;8.23;4.57;;;;;;;;;;5000725;28;20284;-69
2021/06/01 21:04:47;;;;;;;6.35;3.95;;;;;;;;;;5016027;28;21016;-69
2021/06/01 21:07:14;;;;;;;9.98;4.13;;;;;;;;;;5010020;28;20194;-69
2021/06/01 21:09:40;;;;;;;6.15;4.40;;;;;;;;;;5013270;28;20277;-70
2021/06/01 21:12:06;;;;;;;6.78;4.65;;;;;;;;;;5011011;28;20785;-69
2021/06/01 21:14:32;;;;;;;8.50;4.68;;;;;;;;;;5005443;28;20637;-69
2021/06/01 21:16:58;;;;;;;7.25;4.60;;;;;;;;;;5010129;28;20186;-69
2021/06/01 21:19:25;;;;;;;7.22;4.28;;;;;;;;;;5005060;28;20221;-69
2021/06/01 21:21:51;;;;;;;7.97;4.38;;;;;;;;;;5012432;28;20213;-69
2021/06/01 21:24:16;;;;;;;7.55;4.65;;;;;;;;;;5003163;28;20194;-68
2021/06/01 21:26:42;;;;;;;9.25;4.90;;;;;;;;;;5013388;28;20551;-70
2021/06/01 21:29:07;;;;;;;6.95;4.85;;;;;;;;;;5002118;28;20209;-68
2021/06/01 21:31:41;;;;;;;8.82;4.78;;;;;;;;;;5012677;28;20554;-69
2021/06/01 21:34:11;;;;;;;7.43;4.68;;;;;;;;;;5003417;28;21723;-70
2021/06/01 21:36:41;;;;;;;6.13;4.85;;;;;;;;;;5011449;28;20190;-69
2021/06/01 21:39:10;;;;;;;6.93;4.95;;;;;;;;;;5007515;28;20312;-69
2021/06/01 21:41:35;;;;;;;10.50;5.00;;;;;;;;;;5011067;28;20655;-70
2021/06/01 21:44:03;;;;;;;9.18;5.10;;;;;;;;;;5011527;28;20193;-69